createdAt,value
2022-12-17T00:05:26.795Z,96845.47
2022-12-17T00:11:05.962Z,96844.50
2022-12-17T00:16:45.353Z,96850.47
2022-12-17T00:22:24.741Z,96853.19
2022-12-17T00:28:04.602Z,96858.06
2022-12-17T00:33:43.803Z,96865.16
2022-12-17T00:39:22.975Z,96875.19
2022-12-17T00:45:02.183Z,96886.53
2022-12-17T00:50:41.305Z,96904.50
2022-12-17T00:56:20.631Z,96909.19
2022-12-17T01:02:00.143Z,96909.13
2022-12-17T01:07:39.241Z,96912.28
2022-12-17T01:13:18.496Z,96922.75
2022-12-17T01:18:57.861Z,96926.91
2022-12-17T01:24:37.085Z,96937.66
2022-12-17T01:30:16.433Z,96948.47
2022-12-17T01:35:55.730Z,96954.38
2022-12-17T01:41:36.015Z,96967.13
2022-12-17T01:47:15.133Z,96969.56
2022-12-17T01:52:54.310Z,96960.78
2022-12-17T01:58:33.553Z,96970.19
2022-12-17T02:04:13.423Z,96983.03
2022-12-17T02:10:03.625Z,96984.81
2022-12-17T02:15:59.334Z,96986.19
2022-12-17T02:21:39.773Z,97005.28
2022-12-17T02:27:25.466Z,97001.00
2022-12-17T02:33:07.605Z,97005.75
2022-12-17T02:38:49.376Z,97005.59
2022-12-17T02:44:30.448Z,97006.31
2022-12-17T02:50:12.208Z,97005.31
2022-12-17T02:55:52.872Z,97008.06
2022-12-17T03:01:33.459Z,97014.34
2022-12-17T03:07:15.093Z,97017.88
2022-12-17T03:12:55.286Z,97020.53
2022-12-17T03:18:34.582Z,97027.25
2022-12-17T03:24:13.718Z,97033.00
2022-12-17T03:29:52.870Z,97042.28
2022-12-17T03:35:32.428Z,97053.41
2022-12-17T03:41:11.603Z,97066.25
2022-12-17T03:46:51.085Z,97062.47
2022-12-17T03:52:30.551Z,97063.94
2022-12-17T03:58:09.917Z,97074.88
2022-12-17T04:03:49.235Z,97076.78
2022-12-17T04:09:28.362Z,97087.72
2022-12-17T04:15:07.643Z,97097.94
2022-12-17T04:20:47.088Z,97105.31
2022-12-17T04:26:26.287Z,97119.13
2022-12-17T04:32:05.378Z,97129.25
2022-12-17T04:37:44.596Z,97125.41
2022-12-17T04:43:25.201Z,97133.09
2022-12-17T04:49:04.533Z,97137.53
2022-12-17T04:54:43.700Z,97151.47
2022-12-17T05:00:23.453Z,97162.66
2022-12-17T05:06:03.248Z,97171.84
2022-12-17T05:11:42.599Z,97172.53
2022-12-17T05:17:21.961Z,97175.84
2022-12-17T05:23:01.054Z,97182.06
2022-12-17T05:28:40.236Z,97184.63
2022-12-17T05:34:19.536Z,97194.19
2022-12-17T05:39:58.856Z,97213.16
2022-12-17T05:45:38.182Z,97208.34
2022-12-17T05:51:17.582Z,97214.19
2022-12-17T05:56:57.075Z,97219.78
2022-12-17T06:02:36.277Z,97227.56
2022-12-17T06:08:27.179Z,97232.81
2022-12-17T06:14:06.552Z,97247.75
2022-12-17T06:19:45.861Z,97251.22
2022-12-17T06:25:25.276Z,97260.22
2022-12-17T06:38:37.001Z,97269.63
2022-12-17T06:44:16.472Z,97284.03
2022-12-17T06:50:01.087Z,97285.00
2022-12-17T06:55:40.950Z,97294.41
2022-12-17T07:01:20.360Z,97312.34
2022-12-17T07:06:59.443Z,97317.22
2022-12-17T07:12:38.744Z,97327.38
2022-12-17T07:18:22.986Z,97334.75
2022-12-17T07:24:02.706Z,97344.16
2022-12-17T07:29:41.987Z,97343.44
2022-12-17T07:35:21.430Z,97350.06
2022-12-17T07:41:01.228Z,97361.97
2022-12-17T07:46:40.711Z,97376.38
2022-12-17T07:52:19.858Z,97385.72
2022-12-17T07:57:59.425Z,97388.28
2022-12-17T08:03:39.226Z,97395.22
2022-12-17T08:09:19.229Z,97407.09
2022-12-17T08:14:58.377Z,97419.13
2022-12-17T08:20:37.710Z,97426.50
2022-12-17T08:26:17.184Z,97439.19
2022-12-17T08:31:56.398Z,97439.78
2022-12-17T08:37:46.617Z,97453.56
2022-12-17T08:43:30.980Z,97448.91
2022-12-17T08:49:10.889Z,97456.22
2022-12-17T08:54:50.286Z,97462.88
2022-12-17T09:00:30.122Z,97474.88
2022-12-17T09:06:11.005Z,97475.66
2022-12-17T09:11:50.220Z,97477.41
2022-12-17T09:17:29.838Z,97478.22
2022-12-17T09:23:09.050Z,97488.72
2022-12-17T09:28:48.357Z,97492.75
2022-12-17T09:34:27.797Z,97490.41
2022-12-17T09:40:07.092Z,97488.50
2022-12-17T09:45:53.865Z,97491.78
2022-12-17T09:51:59.303Z,97494.69
2022-12-17T09:57:46.610Z,97507.34
2022-12-17T10:03:39.537Z,97519.03
2022-12-17T10:09:28.097Z,97513.81
2022-12-17T10:15:07.389Z,97522.91
2022-12-17T10:20:55.076Z,97529.03
2022-12-17T10:26:44.401Z,97534.72
2022-12-17T10:32:34.234Z,97542.25
2022-12-17T10:38:13.592Z,97543.53
2022-12-17T10:43:57.414Z,97539.00
2022-12-17T10:49:39.382Z,97542.06
2022-12-17T10:55:24.316Z,97544.28
2022-12-17T11:01:06.707Z,97558.25
2022-12-17T11:06:49.723Z,97574.09
2022-12-17T11:12:32.064Z,97580.50
2022-12-17T11:18:12.056Z,97580.06
2022-12-17T11:23:54.839Z,97579.25
2022-12-17T11:29:34.209Z,97582.97
2022-12-17T11:35:35.337Z,97581.44
2022-12-17T11:41:26.528Z,97586.84
2022-12-17T11:47:30.875Z,97602.56
2022-12-17T11:53:28.190Z,97607.91
2022-12-17T11:59:18.571Z,97610.25
2022-12-17T12:05:10.041Z,97605.25
2022-12-17T12:10:59.573Z,97606.34
2022-12-17T12:16:52.154Z,97597.09
2022-12-17T12:22:38.470Z,97604.59
2022-12-17T12:28:56.302Z,97612.69
2022-12-17T12:34:51.194Z,97614.00
2022-12-17T12:40:51.411Z,97621.41
2022-12-17T12:46:52.938Z,97624.41
2022-12-17T12:52:42.314Z,97628.97
2022-12-17T12:58:39.467Z,97627.25
2022-12-17T13:04:21.725Z,97636.09
2022-12-17T13:09:51.054Z,97628.75
2022-12-17T13:15:36.343Z,97636.81
2022-12-17T13:21:06.210Z,97643.78
2022-12-17T13:26:39.044Z,97639.59
2022-12-17T13:32:26.011Z,97641.53
2022-12-17T13:37:55.687Z,97649.81
2022-12-17T13:43:19.715Z,97668.06
2022-12-17T13:48:41.978Z,97671.47
2022-12-17T13:54:04.542Z,97692.41
2022-12-17T13:59:25.474Z,97691.72
2022-12-17T14:04:52.906Z,97697.50
2022-12-17T14:10:18.470Z,97700.09
2022-12-17T14:15:44.664Z,97711.03
2022-12-17T14:21:05.934Z,97707.72
2022-12-17T14:26:26.781Z,97726.69
2022-12-17T14:32:00.489Z,97727.56
2022-12-17T14:37:24.602Z,97731.81
2022-12-17T14:42:46.022Z,97737.13
2022-12-17T14:48:16.110Z,97748.69
2022-12-17T14:53:37.219Z,97762.69
2022-12-17T14:58:58.156Z,97763.19
2022-12-17T15:04:20.067Z,97774.59
2022-12-17T15:09:42.262Z,97780.81
2022-12-17T15:15:03.705Z,97780.34
2022-12-17T15:20:24.542Z,97789.31
2022-12-17T15:25:47.484Z,97792.59
2022-12-17T15:31:14.093Z,97799.56
2022-12-17T15:36:34.945Z,97811.81
2022-12-17T15:42:14.452Z,97806.97
2022-12-17T15:47:35.492Z,97808.81
2022-12-17T15:52:56.306Z,97815.44
2022-12-17T15:58:19.168Z,97826.47
2022-12-17T16:03:39.870Z,97831.81
2022-12-17T16:09:00.609Z,97828.56
2022-12-17T16:14:22.787Z,97834.66
2022-12-17T16:19:43.843Z,97841.59
2022-12-17T16:25:05.244Z,97828.41
2022-12-17T16:30:25.892Z,97838.41
2022-12-17T16:35:51.780Z,97836.72
2022-12-17T16:41:14.483Z,97834.72
2022-12-17T16:46:38.794Z,97845.97
2022-12-17T16:51:59.670Z,97850.81
2022-12-17T16:57:20.479Z,97845.34
2022-12-17T17:02:42.479Z,97848.50
2022-12-17T17:08:04.696Z,97850.88
2022-12-17T17:13:25.258Z,97860.38
2022-12-17T17:18:46.514Z,97865.34
2022-12-17T17:24:21.223Z,97877.97
2022-12-17T17:29:42.917Z,97879.63
2022-12-17T17:35:04.565Z,97877.22
2022-12-17T17:40:26.173Z,97883.69
2022-12-17T17:45:47.065Z,97883.63
2022-12-17T17:51:12.260Z,97906.22
2022-12-17T17:56:35.457Z,97905.06
2022-12-17T18:01:56.651Z,97917.88
2022-12-17T18:07:25.152Z,97917.22
2022-12-17T18:13:05.230Z,97920.44
2022-12-17T18:18:25.985Z,97930.22
2022-12-17T18:23:48.557Z,97929.91
2022-12-17T18:29:17.917Z,97932.22
2022-12-17T18:34:38.836Z,97951.00
2022-12-17T18:39:59.687Z,97951.81
2022-12-17T18:45:20.559Z,97954.28
2022-12-17T18:50:41.466Z,97968.56
2022-12-17T18:56:12.183Z,97976.16
2022-12-17T19:01:36.421Z,97973.34
2022-12-17T19:06:57.096Z,97978.31
2022-12-17T19:12:18.386Z,97977.63
2022-12-17T19:17:39.154Z,97978.69
2022-12-17T19:23:00.120Z,97988.47
2022-12-17T19:28:21.048Z,97997.22
2022-12-17T19:33:42.564Z,97998.59
2022-12-17T19:39:06.457Z,97996.91
2022-12-17T19:44:27.334Z,98006.09
2022-12-17T19:49:48.324Z,98009.56
2022-12-17T19:55:09.608Z,98023.94
2022-12-17T20:00:30.530Z,98026.78
2022-12-17T20:05:52.109Z,98031.78
2022-12-17T20:11:34.837Z,98027.03
2022-12-17T20:16:58.446Z,98041.84
2022-12-17T20:22:19.423Z,98041.84
2022-12-17T20:27:40.107Z,98048.72
2022-12-17T20:33:00.868Z,98063.19
2022-12-17T20:38:22.254Z,98059.53
2022-12-17T20:43:43.479Z,98073.47
2022-12-17T20:49:05.649Z,98074.75
2022-12-17T20:54:26.415Z,98069.16
2022-12-17T20:59:47.403Z,98073.44
2022-12-17T21:05:08.439Z,98075.38
2022-12-17T21:10:29.465Z,98081.38
2022-12-17T21:15:51.031Z,98080.88
2022-12-17T21:21:16.942Z,98086.53
2022-12-17T21:26:41.787Z,98093.00
2022-12-17T21:32:03.350Z,98098.09
2022-12-17T21:37:24.219Z,98096.34
2022-12-17T21:43:03.116Z,98107.09
2022-12-17T21:48:24.782Z,98111.47
2022-12-17T21:53:46.081Z,98112.41
2022-12-17T21:59:06.963Z,98113.63
2022-12-17T22:04:27.748Z,98114.59
2022-12-17T22:10:06.022Z,98121.31
2022-12-17T22:15:34.991Z,98123.53
2022-12-17T22:21:09.460Z,98123.53
2022-12-17T22:26:30.281Z,98120.09
2022-12-17T22:32:09.686Z,98130.41
2022-12-17T22:39:17.949Z,98131.59
2022-12-17T22:44:37.805Z,98139.41
2022-12-17T22:49:11.329Z,98136.00
2022-12-17T22:54:32.163Z,98142.19
2022-12-17T22:59:53.569Z,98145.75
2022-12-17T23:05:14.775Z,98147.44
2022-12-17T23:10:35.458Z,98144.03
2022-12-17T23:15:56.288Z,98148.13
2022-12-17T23:21:25.479Z,98151.59
2022-12-17T23:26:46.497Z,98160.13
2022-12-17T23:32:07.283Z,98162.06
2022-12-17T23:37:28.128Z,98165.00
2022-12-17T23:42:49.190Z,98168.41
2022-12-17T23:48:09.965Z,98169.31
2022-12-17T23:53:32.395Z,98178.50
2022-12-17T23:59:01.123Z,98179.53
